createdAt,value
2024-03-10T00:01:32.283Z,23.53
2024-03-10T00:03:59.582Z,26.87
2024-03-10T00:06:26.206Z,27.93
2024-03-10T00:08:54.389Z,26.03
2024-03-10T00:11:21.425Z,29.37
2024-03-10T00:13:50.028Z,27.07
2024-03-10T00:16:18.043Z,26.87
2024-03-10T00:18:44.652Z,35.03
2024-03-10T00:21:11.312Z,23.80
2024-03-10T00:23:38.624Z,25.63
2024-03-10T00:26:07.032Z,28.27
2024-03-10T00:28:37.444Z,27.70
2024-03-10T00:31:04.687Z,23.20
2024-03-10T00:33:31.489Z,31.00
2024-03-10T00:35:59.223Z,24.50
2024-03-10T00:38:28.883Z,28.27
2024-03-10T00:40:56.125Z,35.70
2024-03-10T00:43:22.810Z,27.80
2024-03-10T00:45:51.186Z,26.23
2024-03-10T00:48:20.881Z,28.30
2024-03-10T00:50:47.845Z,24.40
2024-03-10T00:53:15.337Z,28.10
2024-03-10T00:55:45.703Z,30.00
2024-03-10T00:58:12.358Z,26.80
2024-03-10T01:00:39.105Z,26.30
2024-03-10T01:03:11.063Z,28.73
2024-03-10T01:05:37.801Z,26.90
2024-03-10T01:08:05.062Z,30.20
2024-03-10T01:10:32.628Z,32.13
2024-03-10T01:12:59.361Z,28.53
2024-03-10T01:15:25.912Z,24.50
2024-03-10T01:17:52.497Z,28.07
2024-03-10T01:20:19.221Z,23.53
2024-03-10T01:22:46.043Z,29.07
2024-03-10T01:25:12.650Z,23.33
2024-03-10T01:27:39.232Z,35.17
2024-03-10T01:30:06.330Z,31.73
2024-03-10T01:32:33.706Z,26.17
2024-03-10T01:35:01.775Z,28.37
2024-03-10T01:37:28.410Z,25.60
2024-03-10T01:39:55.014Z,30.47
2024-03-10T01:42:21.597Z,28.93
2024-03-10T01:44:48.581Z,26.60
2024-03-10T01:47:15.737Z,32.37
2024-03-10T01:49:42.577Z,26.97
2024-03-10T01:52:11.684Z,28.20
2024-03-10T01:54:38.845Z,30.87
2024-03-10T01:57:06.638Z,25.33
2024-03-10T01:59:35.048Z,31.00
2024-03-10T02:02:02.050Z,29.80
2024-03-10T02:04:28.750Z,28.00
2024-03-10T02:06:56.157Z,27.97
2024-03-10T02:09:22.833Z,31.60
2024-03-10T02:11:49.536Z,31.53
2024-03-10T02:14:16.242Z,27.23
2024-03-10T02:16:42.960Z,26.90
2024-03-10T02:19:09.663Z,29.37
2024-03-10T02:21:36.225Z,26.57
2024-03-10T02:24:18.069Z,30.97
2024-03-10T02:26:47.564Z,32.83
2024-03-10T02:29:24.463Z,31.37
2024-03-10T02:32:10.731Z,31.10
2024-03-10T02:34:57.574Z,31.27
2024-03-10T02:37:43.259Z,31.67
2024-03-10T02:40:29.422Z,32.80
2024-03-10T02:43:14.791Z,32.53
2024-03-10T02:46:00.059Z,33.50
2024-03-10T02:48:26.682Z,32.27
2024-03-10T02:50:53.569Z,32.37
2024-03-10T02:53:20.934Z,32.50
2024-03-10T02:55:47.855Z,34.60
2024-03-10T02:58:14.559Z,32.80
2024-03-10T03:00:42.358Z,29.77
2024-03-10T03:03:10.253Z,29.67
2024-03-10T03:05:39.332Z,31.13
2024-03-10T03:08:06.179Z,34.03
2024-03-10T03:10:32.854Z,37.60
2024-03-10T03:12:59.421Z,34.67
2024-03-10T03:15:26.057Z,32.23
2024-03-10T03:17:52.684Z,40.37
2024-03-10T03:20:22.243Z,36.53
2024-03-10T03:22:50.231Z,36.03
2024-03-10T03:25:21.657Z,34.77
2024-03-10T03:27:49.681Z,35.30
2024-03-10T03:30:17.368Z,32.63
2024-03-10T03:32:44.777Z,34.90
2024-03-10T03:35:12.223Z,43.90
2024-03-10T03:37:39.416Z,37.33
2024-03-10T03:40:10.750Z,37.37
2024-03-10T03:42:37.377Z,35.40
2024-03-10T03:45:05.613Z,32.90
2024-03-10T03:47:33.059Z,36.93
2024-03-10T03:50:00.255Z,38.83
2024-03-10T03:52:27.410Z,35.00
2024-03-10T03:54:54.070Z,36.70
2024-03-10T03:57:21.653Z,39.13
2024-03-10T03:59:48.225Z,44.10
2024-03-10T04:02:14.943Z,37.00
2024-03-10T04:04:41.952Z,41.80
2024-03-10T04:07:08.607Z,37.13
2024-03-10T04:09:35.439Z,42.57
2024-03-10T04:12:02.355Z,37.37
2024-03-10T04:14:29.911Z,38.53
2024-03-10T04:16:56.660Z,35.60
2024-03-10T04:19:23.365Z,37.60
2024-03-10T04:21:50.070Z,53.00
2024-03-10T04:24:17.247Z,41.13
2024-03-10T04:26:45.642Z,42.97
2024-03-10T04:29:13.213Z,37.97
2024-03-10T04:31:40.000Z,43.50
2024-03-10T04:34:12.193Z,43.57
2024-03-10T04:36:39.020Z,36.80
2024-03-10T04:39:06.513Z,43.57
2024-03-10T04:41:33.186Z,42.00
2024-03-10T04:43:59.820Z,49.87
2024-03-10T04:46:28.716Z,40.93
2024-03-10T04:48:58.434Z,42.50
2024-03-10T04:51:25.731Z,42.67
2024-03-10T04:53:52.397Z,42.53
2024-03-10T04:56:19.095Z,38.47
2024-03-10T04:58:45.738Z,44.77
2024-03-10T05:01:12.485Z,41.40
2024-03-10T05:03:40.084Z,51.33
2024-03-10T05:06:08.433Z,42.53
2024-03-10T05:08:35.113Z,40.13
2024-03-10T05:11:05.002Z,52.37
2024-03-10T05:13:35.992Z,37.13
2024-03-10T05:16:04.215Z,39.27
2024-03-10T05:18:32.502Z,42.83
2024-03-10T05:20:59.201Z,42.20
2024-03-10T05:23:27.294Z,34.57
2024-03-10T05:25:54.078Z,42.80
2024-03-10T05:28:20.704Z,39.53
2024-03-10T05:30:47.829Z,43.73
2024-03-10T05:33:14.438Z,39.83
2024-03-10T05:35:41.135Z,41.27
2024-03-10T05:38:08.104Z,37.53
2024-03-10T05:40:34.751Z,40.83
2024-03-10T05:43:01.452Z,48.17
2024-03-10T05:45:28.669Z,45.60
2024-03-10T05:47:55.400Z,40.20
2024-03-10T05:50:22.707Z,37.33
2024-03-10T05:52:49.492Z,46.40
2024-03-10T05:55:17.243Z,44.57
2024-03-10T05:57:44.623Z,37.77
2024-03-10T06:00:17.833Z,39.77
2024-03-10T06:02:46.165Z,42.93
2024-03-10T06:05:14.891Z,41.03
2024-03-10T06:07:44.332Z,46.87
2024-03-10T06:10:12.442Z,43.60
2024-03-10T06:12:43.654Z,41.33
2024-03-10T06:15:12.370Z,45.70
2024-03-10T06:17:42.589Z,39.23
2024-03-10T06:20:29.340Z,45.97
2024-03-10T06:23:14.641Z,42.13
2024-03-10T06:25:41.349Z,42.33
2024-03-10T06:28:08.366Z,42.40
2024-03-10T06:30:36.372Z,39.40
2024-03-10T06:33:03.448Z,38.20
2024-03-10T06:35:30.584Z,41.37
2024-03-10T06:37:57.388Z,45.53
2024-03-10T06:40:24.078Z,41.63
2024-03-10T06:42:50.786Z,36.03
2024-03-10T06:45:18.306Z,33.47
2024-03-10T06:47:45.248Z,35.20
2024-03-10T06:50:12.085Z,33.87
2024-03-10T06:52:39.698Z,34.03
2024-03-10T06:55:07.320Z,30.43
2024-03-10T06:57:34.417Z,33.93
2024-03-10T07:00:01.656Z,37.33
2024-03-10T07:02:30.186Z,30.53
2024-03-10T07:04:58.121Z,31.97
2024-03-10T07:07:27.392Z,30.90
2024-03-10T07:09:55.100Z,30.13
2024-03-10T07:12:21.879Z,29.80
2024-03-10T07:14:49.417Z,29.30
2024-03-10T07:20:13.085Z,28.40
2024-03-10T07:22:39.873Z,29.00
2024-03-10T07:25:07.508Z,29.93
2024-03-10T07:27:34.528Z,30.00
2024-03-10T07:30:02.237Z,28.73
2024-03-10T07:32:28.976Z,30.37
2024-03-10T07:34:55.655Z,29.47
2024-03-10T07:37:22.330Z,27.40
2024-03-10T07:39:48.927Z,26.10
2024-03-10T07:42:16.843Z,31.60
2024-03-10T07:44:43.777Z,29.90
2024-03-10T07:47:11.139Z,26.90
2024-03-10T07:49:39.082Z,26.50
2024-03-10T07:52:06.451Z,26.60
2024-03-10T07:54:33.871Z,26.33
2024-03-10T07:57:00.967Z,27.70
2024-03-10T07:59:27.648Z,28.13
2024-03-10T08:01:54.319Z,26.17
2024-03-10T08:04:21.228Z,29.40
2024-03-10T08:06:47.914Z,25.17
2024-03-10T08:09:19.207Z,26.90
2024-03-10T08:11:46.960Z,29.60
2024-03-10T08:14:13.764Z,27.00
2024-03-10T08:16:41.930Z,27.40
2024-03-10T08:19:08.517Z,28.73
2024-03-10T08:21:35.077Z,23.60
2024-03-10T08:24:01.701Z,27.93
2024-03-10T08:26:28.389Z,25.23
2024-03-10T08:28:56.554Z,26.37
2024-03-10T08:31:23.203Z,26.37
2024-03-10T08:33:49.920Z,26.77
2024-03-10T08:36:17.945Z,24.67
2024-03-10T08:38:44.927Z,23.10
2024-03-10T08:41:11.885Z,28.43
2024-03-10T08:43:38.502Z,25.17
2024-03-10T08:46:05.190Z,26.30
2024-03-10T08:48:31.852Z,26.63
2024-03-10T08:50:58.761Z,27.53
2024-03-10T08:53:26.630Z,25.10
2024-03-10T08:55:55.087Z,28.00
2024-03-10T08:58:21.964Z,26.80
2024-03-10T09:00:49.150Z,24.43
2024-03-10T09:03:15.835Z,23.40
2024-03-10T09:05:42.650Z,24.30
2024-03-10T09:08:10.839Z,22.43
2024-03-10T09:10:44.621Z,24.80
2024-03-10T09:13:20.711Z,28.60
2024-03-10T09:15:47.439Z,21.90
2024-03-10T09:18:14.339Z,28.90
2024-03-10T09:20:41.275Z,22.33
2024-03-10T09:23:07.984Z,24.10
2024-03-10T09:25:35.205Z,22.13
2024-03-10T09:28:01.971Z,28.73
2024-03-10T09:30:31.471Z,23.57
2024-03-10T09:32:58.500Z,23.60
2024-03-10T09:35:25.538Z,23.60
2024-03-10T09:37:54.174Z,23.47
2024-03-10T09:40:32.098Z,23.50
2024-03-10T09:43:03.379Z,23.20
2024-03-10T09:45:30.146Z,24.00
2024-03-10T09:47:59.804Z,23.53
2024-03-10T09:50:29.218Z,23.57
2024-03-10T09:52:58.469Z,22.37
2024-03-10T09:55:25.972Z,19.37
2024-03-10T09:57:56.505Z,21.87
2024-03-10T10:00:25.251Z,20.23
2024-03-10T10:03:07.414Z,31.50
2024-03-10T10:05:40.537Z,21.60
2024-03-10T10:08:11.748Z,22.67
2024-03-10T10:10:38.568Z,22.83
2024-03-10T10:13:05.298Z,22.80
2024-03-10T10:15:35.358Z,20.57
2024-03-10T10:18:03.684Z,21.30
2024-03-10T10:20:30.696Z,19.90
2024-03-10T10:22:57.521Z,18.73
2024-03-10T10:25:24.197Z,22.47
2024-03-10T10:27:52.163Z,17.33
2024-03-10T10:30:23.407Z,21.53
2024-03-10T10:33:02.171Z,20.67
2024-03-10T10:35:29.317Z,19.30
2024-03-10T10:37:56.090Z,20.27
2024-03-10T10:40:23.892Z,19.40
2024-03-10T10:42:57.132Z,21.57
2024-03-10T10:45:31.748Z,22.00
2024-03-10T10:47:58.412Z,18.77
2024-03-10T10:50:32.625Z,22.63
2024-03-10T10:53:00.435Z,21.20
2024-03-10T10:55:28.479Z,18.80
2024-03-10T10:57:59.095Z,19.57
2024-03-10T11:00:30.649Z,19.90
2024-03-10T11:03:17.980Z,15.90
2024-03-10T11:06:07.097Z,22.67
2024-03-10T11:08:36.247Z,22.47
2024-03-10T11:11:04.633Z,20.40
2024-03-10T11:13:31.326Z,22.47
2024-03-10T11:16:27.697Z,20.27
2024-03-10T11:19:13.058Z,23.60
2024-03-10T11:21:40.312Z,24.17
2024-03-10T11:24:15.756Z,20.43
2024-03-10T11:26:42.624Z,21.40
2024-03-10T11:29:25.176Z,24.23
2024-03-10T11:31:51.913Z,23.53
2024-03-10T11:34:19.016Z,22.87
2024-03-10T11:36:47.333Z,22.67
2024-03-10T11:39:20.963Z,23.20
2024-03-10T11:41:49.496Z,22.13
2024-03-10T11:44:17.423Z,20.90
2024-03-10T11:46:44.715Z,22.30
2024-03-10T11:49:14.406Z,21.80
2024-03-10T11:51:41.639Z,21.23
2024-03-10T11:54:12.628Z,23.87
2024-03-10T11:56:40.429Z,27.30
2024-03-10T11:59:08.659Z,25.47
2024-03-10T12:01:35.567Z,19.80
2024-03-10T12:04:10.518Z,21.40
2024-03-10T12:06:38.019Z,25.43
2024-03-10T12:09:14.736Z,21.93
2024-03-10T12:11:43.220Z,25.43
2024-03-10T12:14:10.170Z,20.67
2024-03-10T12:16:36.850Z,23.90
2024-03-10T12:19:05.071Z,21.83
2024-03-10T12:21:33.500Z,25.50
2024-03-10T12:24:01.777Z,24.70
2024-03-10T12:26:30.729Z,24.53
2024-03-10T12:28:57.623Z,22.43
2024-03-10T12:31:26.703Z,22.83
2024-03-10T12:33:53.456Z,25.57
2024-03-10T12:36:21.534Z,26.40
2024-03-10T12:38:48.266Z,28.30
2024-03-10T12:41:15.329Z,23.93
2024-03-10T12:43:42.944Z,20.63
2024-03-10T12:46:18.684Z,22.33
2024-03-10T12:48:49.090Z,24.90
2024-03-10T12:51:16.082Z,22.83
2024-03-10T12:53:42.679Z,27.47
2024-03-10T12:56:17.175Z,25.80
2024-03-10T12:58:47.290Z,24.87
2024-03-10T13:01:14.059Z,31.63
2024-03-10T13:03:40.668Z,24.70
2024-03-10T13:06:07.289Z,25.97
2024-03-10T13:08:34.208Z,21.47
2024-03-10T13:11:01.089Z,25.20
2024-03-10T13:13:28.406Z,23.40
2024-03-10T13:15:55.915Z,24.93
2024-03-10T13:18:23.083Z,24.07
2024-03-10T13:20:50.210Z,23.77
2024-03-10T13:23:17.018Z,28.80
2024-03-10T13:25:44.075Z,20.80
2024-03-10T13:28:10.978Z,24.23
2024-03-10T13:30:39.505Z,24.80
2024-03-10T13:33:07.099Z,24.50
2024-03-10T13:35:34.877Z,23.10
2024-03-10T13:38:05.066Z,23.27
2024-03-10T13:40:32.321Z,21.87
2024-03-10T13:45:35.553Z,24.57
2024-03-10T13:48:07.447Z,26.03
2024-03-10T13:50:36.615Z,26.70
2024-03-10T13:53:03.587Z,27.30
2024-03-10T13:55:30.288Z,27.33
2024-03-10T13:57:56.941Z,26.10
2024-03-10T14:00:26.238Z,23.03
2024-03-10T14:02:53.522Z,21.47
2024-03-10T14:05:20.732Z,23.20
2024-03-10T14:07:48.683Z,40.13
2024-03-10T14:10:18.389Z,30.13
2024-03-10T14:12:45.947Z,29.50
2024-03-10T14:15:13.793Z,23.80
2024-03-10T14:17:42.297Z,24.17
2024-03-10T14:20:15.019Z,27.50
2024-03-10T14:22:45.049Z,22.77
2024-03-10T14:25:12.522Z,28.40
2024-03-10T14:27:59.420Z,21.90
2024-03-10T14:30:28.202Z,22.10
2024-03-10T14:32:58.803Z,25.30
2024-03-10T14:35:27.199Z,20.97
2024-03-10T14:37:54.649Z,23.80
2024-03-10T14:40:24.476Z,27.10
2024-03-10T14:42:54.652Z,23.70
2024-03-10T14:45:22.107Z,24.00
2024-03-10T14:47:50.820Z,23.90
2024-03-10T14:50:21.048Z,25.57
2024-03-10T14:52:50.172Z,30.40
2024-03-10T14:55:17.039Z,24.67
2024-03-10T14:57:45.204Z,21.90
2024-03-10T15:00:36.218Z,27.17
2024-03-10T15:03:07.270Z,27.27
2024-03-10T15:05:35.523Z,25.73
2024-03-10T15:08:06.312Z,21.60
2024-03-10T15:10:34.532Z,25.60
2024-03-10T15:13:01.473Z,24.77
2024-03-10T15:15:31.086Z,26.07
2024-03-10T15:17:59.708Z,22.13
2024-03-10T15:20:26.368Z,21.70
2024-03-10T15:22:52.999Z,25.40
2024-03-10T15:25:20.643Z,24.77
2024-03-10T15:27:47.893Z,21.43
2024-03-10T15:30:18.939Z,28.20
2024-03-10T15:32:46.857Z,26.07
2024-03-10T15:35:13.884Z,22.80
2024-03-10T15:37:40.821Z,19.07
2024-03-10T15:40:10.894Z,24.57
2024-03-10T15:42:38.345Z,22.87
2024-03-10T15:45:08.940Z,23.30
2024-03-10T15:47:38.581Z,26.47
2024-03-10T15:50:11.034Z,26.37
2024-03-10T15:52:37.889Z,26.27
2024-03-10T15:55:04.819Z,24.37
2024-03-10T15:57:33.258Z,25.90
2024-03-10T16:00:00.139Z,25.57
2024-03-10T16:02:26.819Z,23.97
2024-03-10T16:04:54.800Z,25.10
2024-03-10T16:07:21.444Z,25.07
2024-03-10T16:09:50.407Z,25.73
2024-03-10T16:12:19.137Z,26.27
2024-03-10T16:14:46.678Z,26.10
2024-03-10T16:17:13.645Z,31.57
2024-03-10T16:19:43.690Z,25.13
2024-03-10T16:22:11.459Z,28.03
2024-03-10T16:24:41.145Z,27.80
2024-03-10T16:27:08.761Z,24.50
2024-03-10T16:29:35.464Z,23.83
2024-03-10T16:32:02.193Z,24.77
2024-03-10T16:34:28.876Z,27.00
2024-03-10T16:36:55.669Z,27.07
2024-03-10T16:39:24.143Z,23.73
2024-03-10T16:41:50.784Z,27.83
2024-03-10T16:44:17.426Z,27.90
2024-03-10T16:46:44.160Z,23.80
2024-03-10T16:49:10.819Z,24.13
2024-03-10T16:51:38.017Z,24.40
2024-03-10T16:54:05.655Z,28.50
2024-03-10T16:56:33.119Z,20.90
2024-03-10T16:58:59.787Z,26.60
2024-03-10T17:01:27.996Z,25.13
2024-03-10T17:03:55.184Z,26.00
2024-03-10T17:06:21.774Z,25.03
2024-03-10T17:08:48.461Z,23.73
2024-03-10T17:11:15.549Z,28.93
2024-03-10T17:13:42.580Z,23.90
2024-03-10T17:16:09.190Z,24.37
2024-03-10T17:18:36.523Z,22.43
2024-03-10T17:21:05.371Z,27.23
2024-03-10T17:23:32.044Z,22.93
2024-03-10T17:25:59.679Z,21.23
2024-03-10T17:28:26.478Z,26.87
2024-03-10T17:30:53.088Z,29.73
2024-03-10T17:33:21.077Z,26.40
2024-03-10T17:35:47.960Z,23.37
2024-03-10T17:38:17.431Z,25.40
2024-03-10T17:40:44.128Z,25.97
2024-03-10T17:43:10.785Z,20.77
2024-03-10T17:45:37.580Z,21.50
2024-03-10T17:48:04.482Z,22.03
2024-03-10T17:50:36.461Z,24.77
2024-03-10T17:53:05.597Z,21.07
2024-03-10T17:55:32.504Z,26.00
2024-03-10T17:57:59.118Z,20.90
2024-03-10T18:00:27.522Z,22.93
2024-03-10T18:02:54.911Z,21.50
2024-03-10T18:05:21.717Z,22.77
2024-03-10T18:07:52.417Z,24.30
2024-03-10T18:10:23.924Z,24.73
2024-03-10T18:12:52.330Z,23.27
2024-03-10T18:15:21.669Z,23.37
2024-03-10T18:17:48.373Z,22.30
2024-03-10T18:20:15.760Z,24.57
2024-03-10T18:22:45.143Z,25.20
2024-03-10T18:25:12.667Z,24.43
2024-03-10T18:27:40.642Z,23.83
2024-03-10T18:30:12.675Z,19.67
2024-03-10T18:32:39.668Z,21.00
2024-03-10T18:35:09.098Z,25.67
2024-03-10T18:37:39.404Z,22.77
2024-03-10T18:40:08.315Z,26.50
2024-03-10T18:42:35.204Z,26.60
2024-03-10T18:45:01.809Z,23.43
2024-03-10T18:47:28.626Z,26.80
2024-03-10T18:49:55.403Z,22.77
2024-03-10T18:52:23.371Z,22.53
2024-03-10T18:54:50.012Z,22.63
2024-03-10T18:57:19.446Z,24.17
2024-03-10T18:59:46.992Z,19.53
2024-03-10T19:02:14.536Z,22.60
2024-03-10T19:04:41.232Z,22.13
2024-03-10T19:07:09.058Z,24.30
2024-03-10T19:09:35.638Z,21.10
2024-03-10T19:12:02.258Z,23.30
2024-03-10T19:14:29.484Z,26.43
2024-03-10T19:16:56.376Z,23.90
2024-03-10T19:19:23.762Z,22.50
2024-03-10T19:21:51.243Z,21.23
2024-03-10T19:24:17.898Z,23.57
2024-03-10T19:26:45.572Z,21.83
2024-03-10T19:29:13.019Z,24.50
2024-03-10T19:31:39.719Z,18.40
2024-03-10T19:34:07.418Z,20.50
2024-03-10T19:36:34.345Z,24.97
2024-03-10T19:39:02.034Z,21.73
2024-03-10T19:41:30.200Z,20.73
2024-03-10T19:43:57.110Z,22.70
2024-03-10T19:46:23.861Z,21.53
2024-03-10T19:48:51.998Z,23.13
2024-03-10T19:51:18.621Z,22.80
2024-03-10T19:53:45.784Z,25.97
2024-03-10T19:56:12.975Z,24.47
2024-03-10T19:58:40.193Z,22.07
2024-03-10T20:01:09.060Z,22.13
2024-03-10T20:03:35.980Z,22.33
2024-03-10T20:06:03.563Z,23.50
2024-03-10T20:08:30.946Z,22.00
2024-03-10T20:10:58.889Z,21.43
2024-03-10T20:13:25.691Z,22.77
2024-03-10T20:15:52.597Z,19.97
2024-03-10T20:18:19.270Z,22.30
2024-03-10T20:20:46.212Z,22.73
2024-03-10T20:23:13.851Z,18.20
2024-03-10T20:25:40.622Z,23.40
2024-03-10T20:28:10.064Z,19.13
2024-03-10T20:30:37.918Z,23.47
2024-03-10T20:33:06.002Z,23.93
2024-03-10T20:35:34.157Z,24.20
2024-03-10T20:38:00.950Z,19.87
2024-03-10T20:40:28.355Z,20.90
2024-03-10T20:42:57.183Z,18.60
2024-03-10T20:45:23.924Z,25.90
2024-03-10T20:47:51.533Z,20.83
2024-03-10T20:50:24.732Z,20.83
2024-03-10T20:52:53.585Z,21.90
2024-03-10T20:55:20.981Z,27.03
2024-03-10T20:57:47.632Z,22.10
2024-03-10T21:00:20.092Z,21.77
2024-03-10T21:02:48.750Z,24.33
2024-03-10T21:05:16.382Z,23.80
2024-03-10T21:07:43.925Z,24.00
2024-03-10T21:10:12.052Z,22.50
2024-03-10T21:12:38.780Z,21.10
2024-03-10T21:15:06.837Z,23.13
2024-03-10T21:17:33.624Z,23.10
2024-03-10T21:20:00.655Z,19.47
2024-03-10T21:22:27.440Z,20.07
2024-03-10T21:24:54.297Z,26.03
2024-03-10T21:27:21.204Z,23.50
2024-03-10T21:29:47.890Z,26.40
2024-03-10T21:32:14.603Z,22.40
2024-03-10T21:34:41.243Z,23.30
2024-03-10T21:37:08.229Z,23.33
2024-03-10T21:39:36.056Z,23.67
2024-03-10T21:42:02.783Z,19.03
2024-03-10T21:44:32.273Z,24.23
2024-03-10T21:47:01.246Z,21.90
2024-03-10T21:49:28.178Z,23.33
2024-03-10T21:51:54.812Z,26.67
2024-03-10T21:54:22.674Z,21.77
2024-03-10T21:56:49.476Z,21.30
2024-03-10T21:59:16.243Z,19.13
2024-03-10T22:01:42.847Z,20.63
2024-03-10T22:04:09.579Z,23.73
2024-03-10T22:06:36.852Z,24.50
2024-03-10T22:09:05.740Z,20.70
2024-03-10T22:11:32.590Z,21.80
2024-03-10T22:14:01.858Z,26.10
2024-03-10T22:16:30.686Z,25.03
2024-03-10T22:18:58.199Z,24.10
2024-03-10T22:21:25.803Z,23.30
2024-03-10T22:23:52.517Z,28.37
2024-03-10T22:26:19.165Z,24.23
2024-03-10T22:28:45.930Z,28.00
2024-03-10T22:31:13.542Z,27.20
2024-03-10T22:33:40.207Z,27.73
2024-03-10T22:36:07.565Z,24.20
2024-03-10T22:38:35.132Z,25.37
2024-03-10T22:41:02.516Z,23.93
2024-03-10T22:43:30.132Z,27.43
2024-03-10T22:45:56.782Z,23.03
2024-03-10T22:48:23.781Z,25.50
2024-03-10T22:50:50.761Z,26.57
2024-03-10T22:53:17.424Z,27.60
2024-03-10T22:55:45.827Z,25.63
2024-03-10T22:58:12.456Z,23.80
2024-03-10T23:00:54.497Z,21.30
2024-03-10T23:03:22.892Z,24.57
2024-03-10T23:05:54.212Z,28.03
2024-03-10T23:08:21.506Z,25.97
2024-03-10T23:10:49.203Z,25.17
2024-03-10T23:13:17.060Z,22.37
2024-03-10T23:15:47.268Z,26.93
2024-03-10T23:18:14.106Z,23.17
2024-03-10T23:20:41.879Z,23.47
2024-03-10T23:23:09.157Z,24.43
2024-03-10T23:25:36.091Z,25.40
2024-03-10T23:28:03.637Z,29.00
2024-03-10T23:30:30.270Z,26.77
2024-03-10T23:32:57.637Z,24.30
2024-03-10T23:35:24.841Z,22.60
2024-03-10T23:37:51.885Z,22.63
2024-03-10T23:40:24.331Z,26.17
2024-03-10T23:42:52.291Z,20.03
2024-03-10T23:45:24.580Z,35.43
2024-03-10T23:47:52.321Z,26.30
2024-03-10T23:50:21.228Z,25.77
2024-03-10T23:52:53.116Z,27.20
2024-03-10T23:55:21.618Z,27.53
2024-03-10T23:57:48.967Z,25.93
